Hale Center, Texas
Current Conditions -  °F | °C
As of 8:35 PM on Friday 24 Oct 2014 (Local Time) from KPVW Reporting Station
Clear Clear  
Wind Chill: 65°   Ceiling: Unl
Heat Index: 65°   Visibility: 10mi
Dew Point: 52°   Wind: 6mph
Humidity: 64%   Direction: 190°S
Pressure: 30.13"   Gusts: NA
Location:  34.06°N, 101.84°W
Report Text: KPVW 250135Z AUTO 19005KT 10SM CLR 18/11 A3013 RMK AO2 T01830113
Loading
Personal Weather Stations






























Interactive Weather Map
Tropical Storm Tracking
New forecast layout! Learn more

10-Day Weather Forecast

Advertisements
Track Severe Weather on mobile